Time;durP1;ratioP1;P1;durP2;ratioP2;P2;SDS_P1;SDS_P2;PMS_P1;PMS_P2;Temp;Humidity;BMP_temperature;BMP_pressure;BME280_temperature;BME280_humidity;BME280_pressure;Samples;Min_cycle;Max_cycle;Signal;HPM_P1;HPM_P2
2022/11/19 00:00:54;;;;;;;45.28;29.13;;;2.30;99.90;;;;;;4318338;28;10000701;-74
2022/11/19 00:03:21;;;;;;;44.60;28.35;;;2.30;99.90;;;;;;5052400;28;20028;-74
2022/11/19 00:05:49;;;;;;;45.97;28.88;;;2.20;99.90;;;;;;5058805;28;20025;-74
2022/11/19 00:08:17;;;;;;;43.22;28.02;;;2.20;99.90;;;;;;5054360;28;20052;-74
2022/11/19 00:10:44;;;;;;;44.20;28.30;;;2.20;99.90;;;;;;5058863;28;20052;-74
2022/11/19 00:13:11;;;;;;;43.83;27.52;;;2.10;99.90;;;;;;5054663;28;20044;-74
2022/11/19 00:15:36;;;;;;;45.85;28.67;;;2.10;99.90;;;;;;5058169;28;20036;-74
2022/11/19 00:18:03;;;;;;;43.78;27.63;;;2.10;99.90;;;;;;5055254;28;20574;-74
2022/11/19 00:20:30;;;;;;;43.65;27.15;;;2.00;99.90;;;;;;5060201;28;20036;-74
2022/11/19 00:22:56;;;;;;;45.60;28.35;;;1.90;99.90;;;;;;5063306;28;20487;-75
2022/11/19 00:25:23;;;;;;;42.78;26.63;;;1.90;99.90;;;;;;5058594;28;20032;-74
2022/11/19 00:27:49;;;;;;;45.22;27.52;;;1.90;99.90;;;;;;5055363;28;20119;-75
2022/11/19 00:30:16;;;;;;;44.95;27.42;;;1.90;99.90;;;;;;5057382;28;20070;-74
2022/11/19 00:32:41;;;;;;;44.40;27.33;;;1.90;99.90;;;;;;5062083;28;20032;-74
2022/11/19 00:35:08;;;;;;;43.88;26.63;;;2.10;99.90;;;;;;5000465;28;20147;-74
2022/11/19 00:37:34;;;;;;;45.10;26.75;;;1.90;99.90;;;;;;4999798;28;20406;-74
2022/11/19 00:40:00;;;;;;;39.80;25.92;;;1.80;99.90;;;;;;4999560;28;20037;-74
2022/11/19 00:42:26;;;;;;;45.15;26.63;;;1.80;99.90;;;;;;5001057;28;20030;-74
2022/11/19 00:44:52;;;;;;;43.38;26.98;;;1.70;99.90;;;;;;5007146;28;20032;-74
2022/11/19 00:47:17;;;;;;;42.88;26.10;;;1.80;99.90;;;;;;5002241;28;20069;-74
2022/11/19 00:49:43;;;;;;;40.47;24.70;;;1.70;99.90;;;;;;5000133;28;20014;-74
2022/11/19 00:52:09;;;;;;;41.63;25.08;;;1.70;99.90;;;;;;5002726;28;20105;-75
2022/11/19 00:54:35;;;;;;;40.97;24.88;;;1.70;99.90;;;;;;5002885;28;20193;-74
2022/11/19 00:57:00;;;;;;;39.00;23.40;;;1.80;99.90;;;;;;5002260;28;20100;-74
2022/11/19 00:59:26;;;;;;;37.78;23.17;;;1.80;99.90;;;;;;5004301;28;20014;-74
2022/11/19 01:01:51;;;;;;;37.53;23.00;;;1.80;99.90;;;;;;5003335;28;20022;-74
2022/11/19 01:04:17;;;;;;;36.05;22.77;;;1.80;99.90;;;;;;5003718;28;20040;-74
2022/11/19 01:06:43;;;;;;;37.80;22.00;;;1.80;99.90;;;;;;5006692;28;20037;-74
2022/11/19 01:09:09;;;;;;;39.25;22.58;;;1.70;99.90;;;;;;5005433;28;20446;-74
2022/11/19 01:11:36;;;;;;;39.78;23.85;;;1.70;99.90;;;;;;5008884;28;20029;-74
2022/11/19 01:14:02;;;;;;;40.60;23.65;;;1.60;99.90;;;;;;5006507;28;20468;-74
2022/11/19 01:16:33;;;;;;;43.17;24.80;;;1.60;99.90;;;;;;5003494;28;20079;-74
2022/11/19 01:18:59;;;;;;;40.80;24.20;;;1.50;99.90;;;;;;5012248;28;20148;-74
2022/11/19 01:21:28;;;;;;;39.20;23.23;;;1.50;99.90;;;;;;5009385;28;20026;-74
2022/11/19 01:23:54;;;;;;;40.47;24.17;;;;;;;;;;5011454;28;20017;-74
2022/11/19 01:26:20;;;;;;;40.42;24.08;;;1.50;99.90;;;;;;5002430;28;20032;-74
2022/11/19 01:28:46;;;;;;;38.88;23.20;;;1.50;99.90;;;;;;5000635;28;20047;-74
2022/11/19 01:31:15;;;;;;;42.83;24.92;;;1.50;99.90;;;;;;5012023;28;20396;-74
2022/11/19 01:33:40;;;;;;;38.92;22.70;;;1.50;99.90;;;;;;5008536;28;20079;-74
2022/11/19 01:36:11;;;;;;;39.47;23.13;;;1.50;99.90;;;;;;5004397;28;20042;-74
2022/11/19 01:38:37;;;;;;;38.65;23.02;;;1.50;99.90;;;;;;5000794;28;20274;-74
2022/11/19 01:41:03;;;;;;;37.67;22.35;;;1.50;99.90;;;;;;5011718;28;20029;-74
2022/11/19 01:43:45;;;;;;;41.67;23.45;;;1.50;99.90;;;;;;5009688;28;20025;-74
2022/11/19 01:46:14;;;;;;;38.42;22.25;;;1.50;99.90;;;;;;5008830;28;20363;-75
2022/11/19 01:49:02;;;;;;;37.97;21.80;;;1.50;99.90;;;;;;5006573;28;20533;-74
2022/11/19 01:51:42;;;;;;;37.03;21.45;;;1.50;99.90;;;;;;5004110;28;20234;-74
2022/11/19 01:54:20;;;;;;;35.50;21.05;;;1.40;99.90;;;;;;5005325;28;20256;-74
2022/11/19 01:56:46;;;;;;;41.00;21.92;;;1.40;99.90;;;;;;5006835;28;20048;-75
2022/11/19 01:59:15;;;;;;;35.60;20.45;;;1.40;99.90;;;;;;5000646;28;20041;-74
2022/11/19 02:01:42;;;;;;;37.05;21.83;;;1.40;99.90;;;;;;5009284;28;20091;-74
2022/11/19 02:04:09;;;;;;;37.97;22.05;;;1.40;99.90;;;;;;5010112;28;20038;-75
2022/11/19 02:06:35;;;;;;;36.97;22.67;;;1.40;99.90;;;;;;4998065;28;20512;-75
2022/11/19 02:09:01;;;;;;;37.25;22.35;;;1.50;99.90;;;;;;5006202;28;20121;-74
2022/11/19 02:11:51;;;;;;;39.78;22.83;;;1.50;99.90;;;;;;5009909;28;20033;-75
2022/11/19 02:14:54;;;;;;;39.58;22.35;;;1.50;99.90;;;;;;4999509;28;20034;-74
2022/11/19 02:17:48;;;;;;;42.63;24.33;;;1.40;99.90;;;;;;5002796;28;20398;-74
2022/11/19 02:20:32;;;;;;;39.83;22.30;;;1.40;99.90;;;;;;4993632;28;20029;-75
2022/11/19 02:23:22;;;;;;;40.25;23.13;;;1.40;99.90;;;;;;5009851;28;20034;-74
2022/11/19 02:26:04;;;;;;;40.80;23.45;;;1.40;99.90;;;;;;5006999;28;20559;-74
2022/11/19 02:28:46;;;;;;;39.20;22.85;;;1.40;99.90;;;;;;5005810;28;20092;-74
2022/11/19 02:31:30;;;;;;;37.60;21.83;;;1.40;99.90;;;;;;5006202;28;20124;-75
2022/11/19 02:34:04;;;;;;;41.70;23.63;;;1.40;99.90;;;;;;5006504;28;20021;-74
2022/11/19 02:36:46;;;;;;;38.97;23.10;;;1.40;99.90;;;;;;5005137;28;20030;-74
2022/11/19 02:39:24;;;;;;;39.00;23.33;;;1.40;99.90;;;;;;5000825;28;20514;-74
2022/11/19 02:42:18;;;;;;;41.17;24.08;;;1.40;99.90;;;;;;5012573;28;20033;-74
2022/11/19 02:44:59;;;;;;;41.47;23.55;;;1.40;99.90;;;;;;5005968;28;20037;-74
2022/11/19 02:47:30;;;;;;;40.47;23.45;;;1.30;99.90;;;;;;5008613;28;20373;-74
2022/11/19 02:50:07;;;;;;;42.85;24.63;;;1.30;99.90;;;;;;4999318;28;20453;-74
2022/11/19 02:52:34;;;;;;;42.78;24.80;;;1.30;99.90;;;;;;5001868;28;20053;-74
2022/11/19 02:55:00;;;;;;;42.15;24.35;;;1.20;99.90;;;;;;5002712;28;20132;-74
2022/11/19 02:57:25;;;;;;;39.55;22.33;;;1.30;99.90;;;;;;4998918;28;20041;-75
2022/11/19 03:05:40;;;;;;;39.85;22.67;;;1.20;99.90;;;;;;5007976;28;20049;-74
2022/11/19 03:08:06;;;;;;;39.50;22.20;;;1.10;99.90;;;;;;4995987;28;20046;-74
2022/11/19 03:10:53;;;;;;;38.70;21.90;;;1.10;99.90;;;;;;5004711;28;20737;-75
2022/11/19 03:19:06;;;;;;;36.22;21.80;;;1.10;99.90;;;;;;4996770;28;20495;-75
2022/11/19 03:21:37;;;;;;;39.72;23.17;;;1.10;99.90;;;;;;5004475;28;20473;-75
2022/11/19 03:24:10;;;;;;;35.75;21.10;;;1.10;99.90;;;;;;5002416;28;20037;-74
2022/11/19 03:26:45;;;;;;;28.83;16.55;;;1.10;99.90;;;;;;4997273;28;20065;-75
2022/11/19 03:29:13;;;;;;;36.03;20.92;;;1.10;99.90;;;;;;5000822;28;20072;-74
2022/11/19 03:31:42;;;;;;;34.92;21.05;;;1.10;99.90;;;;;;5005974;28;20037;-75
2022/11/19 03:34:14;;;;;;;34.40;20.67;;;1.20;99.90;;;;;;5001306;28;20065;-75
2022/11/19 03:36:41;;;;;;;35.42;20.48;;;1.20;99.90;;;;;;4996836;28;20054;-75
2022/11/19 03:39:16;;;;;;;33.83;20.77;;;1.10;99.90;;;;;;5006112;28;20041;-75
2022/11/19 03:41:45;;;;;;;33.50;20.33;;;1.10;99.90;;;;;;5019098;28;20123;-74
2022/11/19 03:44:43;;;;;;;33.15;18.67;;;1.10;99.90;;;;;;5005243;28;20305;-75
2022/11/19 03:47:16;;;;;;;31.25;19.42;;;1.10;99.90;;;;;;5003324;28;20029;-74
2022/11/19 03:49:46;;;;;;;32.50;19.45;;;1.10;99.90;;;;;;5003073;28;20484;-75
2022/11/19 03:52:19;;;;;;;29.70;18.55;;;1.10;99.90;;;;;;5004716;28;20490;-75
2022/11/19 03:54:45;;;;;;;31.08;18.88;;;1.10;99.90;;;;;;5009560;28;20049;-75
2022/11/19 03:57:14;;;;;;;29.65;19.10;;;1.10;99.90;;;;;;5004269;28;20297;-74
2022/11/19 03:59:40;;;;;;;30.92;19.15;;;1.10;99.90;;;;;;5003719;28;20460;-74
2022/11/19 04:02:08;;;;;;;30.52;18.73;;;1.10;99.90;;;;;;5010260;28;20491;-75
2022/11/19 04:04:37;;;;;;;29.75;18.23;;;1.10;99.90;;;;;;5013087;28;20030;-75
2022/11/19 04:07:04;;;;;;;28.60;18.73;;;1.10;99.90;;;;;;5012755;28;20029;-74
2022/11/19 04:09:30;;;;;;;31.48;19.52;;;1.10;99.90;;;;;;5000226;28;20387;-75
2022/11/19 04:11:56;;;;;;;27.83;17.42;;;1.10;99.90;;;;;;5004529;28;20036;-75
2022/11/19 04:14:21;;;;;;;26.88;17.77;;;1.10;99.90;;;;;;5007953;28;20159;-74
2022/11/19 04:16:47;;;;;;;27.92;18.42;;;1.10;99.90;;;;;;5006008;28;20025;-75
2022/11/19 04:19:12;;;;;;;30.15;18.98;;;1.10;99.90;;;;;;5003305;28;20097;-75
2022/11/19 04:21:38;;;;;;;28.45;18.30;;;1.20;99.90;;;;;;5012389;28;20055;-75
2022/11/19 04:24:04;;;;;;;26.55;17.20;;;1.20;99.90;;;;;;5007239;28;20116;-75
2022/11/19 04:26:30;;;;;;;28.52;18.83;;;1.10;99.90;;;;;;5009316;28;20113;-75
2022/11/19 04:28:55;;;;;;;27.05;18.08;;;1.10;99.90;;;;;;5004308;28;20109;-74
2022/11/19 04:31:21;;;;;;;31.88;19.65;;;1.10;99.90;;;;;;5007637;28;20433;-75
2022/11/19 04:33:46;;;;;;;28.13;18.35;;;1.10;99.90;;;;;;5005696;28;20033;-75
2022/11/19 04:36:12;;;;;;;26.58;17.05;;;1.10;99.90;;;;;;5009703;28;20025;-75
2022/11/19 04:38:38;;;;;;;28.85;18.63;;;1.10;99.90;;;;;;5013659;28;20018;-75
2022/11/19 04:41:03;;;;;;;27.27;17.95;;;1.20;99.90;;;;;;5013320;28;20029;-74
2022/11/19 04:43:29;;;;;;;29.08;18.88;;;1.10;99.90;;;;;;5006074;28;20026;-75
2022/11/19 04:45:55;;;;;;;29.20;18.05;;;1.20;99.90;;;;;;5004481;28;20025;-74
2022/11/19 04:48:20;;;;;;;25.40;17.05;;;1.10;99.90;;;;;;5006462;28;20034;-75
2022/11/19 04:50:46;;;;;;;26.58;17.33;;;1.10;99.90;;;;;;5007119;28;20117;-75
2022/11/19 04:53:11;;;;;;;26.58;16.23;;;1.00;99.90;;;;;;5005628;28;20032;-74
2022/11/19 04:55:37;;;;;;;26.02;16.27;;;1.00;99.90;;;;;;5002776;28;20024;-74
2022/11/19 04:58:02;;;;;;;24.63;16.23;;;1.00;99.90;;;;;;5011700;28;20180;-75
2022/11/19 05:00:28;;;;;;;23.23;15.30;;;1.00;99.90;;;;;;5002913;28;20022;-74
2022/11/19 05:02:54;;;;;;;22.55;14.93;;;1.00;99.90;;;;;;5003706;28;20064;-74
2022/11/19 05:05:19;;;;;;;23.58;15.00;;;1.00;99.90;;;;;;5006412;28;20033;-74
2022/11/19 05:07:45;;;;;;;24.25;15.23;;;1.00;99.90;;;;;;5002150;28;20034;-74
2022/11/19 05:10:11;;;;;;;22.02;14.90;;;1.00;99.90;;;;;;5009187;28;20026;-74
2022/11/19 05:12:37;;;;;;;23.48;14.90;;;1.00;99.90;;;;;;5014884;28;20028;-74
2022/11/19 05:15:03;;;;;;;22.23;14.63;;;0.90;99.90;;;;;;5004146;28;20030;-74
2022/11/19 05:17:28;;;;;;;20.45;14.32;;;1.00;99.90;;;;;;5008912;28;20454;-74
2022/11/19 05:19:54;;;;;;;22.23;14.23;;;0.90;99.90;;;;;;5005338;28;20026;-74
2022/11/19 05:22:20;;;;;;;21.80;14.15;;;0.90;99.90;;;;;;5012086;28;20670;-74
2022/11/19 05:24:45;;;;;;;23.27;14.60;;;1.00;99.90;;;;;;5011891;28;20091;-75
2022/11/19 05:27:11;;;;;;;21.48;13.85;;;1.00;99.90;;;;;;5012166;28;20029;-74
2022/11/19 05:29:36;;;;;;;20.13;13.80;;;1.00;99.90;;;;;;5004800;28;20115;-74
2022/11/19 05:32:02;;;;;;;23.23;14.35;;;1.00;99.90;;;;;;5008599;28;20502;-75
2022/11/19 05:34:28;;;;;;;20.20;14.05;;;1.00;99.90;;;;;;5010461;28;20029;-75
2022/11/19 05:36:53;;;;;;;21.95;14.88;;;1.00;99.90;;;;;;5007779;28;20077;-74
2022/11/19 05:39:19;;;;;;;20.92;14.05;;;1.00;99.90;;;;;;5004588;28;20145;-75
2022/11/19 05:41:44;;;;;;;19.83;13.50;;;1.00;99.90;;;;;;5006443;28;20029;-75
2022/11/19 05:44:10;;;;;;;20.33;13.18;;;0.90;99.90;;;;;;5007285;28;20034;-75
2022/11/19 05:46:36;;;;;;;21.20;14.13;;;0.90;99.90;;;;;;5005796;28;20230;-75
2022/11/19 05:49:01;;;;;;;20.38;13.75;;;1.00;99.90;;;;;;5008404;28;20034;-74
2022/11/19 05:51:27;;;;;;;20.33;13.02;;;1.00;99.90;;;;;;5015916;28;20025;-75
2022/11/19 05:53:52;;;;;;;22.23;14.57;;;1.00;99.90;;;;;;5002567;28;20057;-74
2022/11/19 05:56:18;;;;;;;18.42;12.90;;;1.00;99.90;;;;;;5003116;28;20431;-74
2022/11/19 05:58:44;;;;;;;20.33;13.10;;;1.00;99.90;;;;;;5014946;28;20044;-75
2022/11/19 06:01:09;;;;;;;19.67;12.93;;;0.90;99.90;;;;;;5009479;28;20025;-75
2022/11/19 06:03:35;;;;;;;20.08;13.38;;;1.00;99.90;;;;;;5011512;28;20030;-75
2022/11/19 06:06:01;;;;;;;19.17;12.57;;;1.00;99.90;;;;;;5012972;28;20026;-74
2022/11/19 06:08:26;;;;;;;20.05;12.90;;;0.90;99.90;;;;;;5000318;28;20048;-75
2022/11/19 06:10:52;;;;;;;20.13;12.98;;;0.90;99.90;;;;;;5002192;28;20029;-74
2022/11/19 06:13:17;;;;;;;20.70;12.43;;;0.90;99.90;;;;;;5013825;28;20028;-74
2022/11/19 06:15:43;;;;;;;17.50;11.63;;;0.90;99.90;;;;;;5006179;28;20022;-74
2022/11/19 06:18:09;;;;;;;17.92;12.02;;;0.90;99.90;;;;;;5002027;28;20280;-74
2022/11/19 06:20:35;;;;;;;19.55;12.57;;;0.90;99.90;;;;;;4999747;28;20029;-74
2022/11/19 06:23:00;;;;;;;18.58;12.15;;;0.90;99.90;;;;;;5001873;28;20036;-74
2022/11/19 06:25:26;;;;;;;16.15;11.20;;;0.90;99.90;;;;;;5005007;28;20021;-74
2022/11/19 06:27:51;;;;;;;17.90;12.20;;;0.80;99.90;;;;;;4997444;28;20121;-75
2022/11/19 06:30:17;;;;;;;16.58;11.23;;;0.90;99.90;;;;;;4990146;28;20640;-74
2022/11/19 06:32:43;;;;;;;14.77;10.63;;;0.80;99.90;;;;;;4988049;28;20352;-75
2022/11/19 06:35:09;;;;;;;16.15;11.35;;;0.80;99.90;;;;;;4996603;28;20354;-75
2022/11/19 06:37:35;;;;;;;15.05;10.63;;;0.70;99.90;;;;;;4994190;28;20850;-75
2022/11/19 06:40:01;;;;;;;17.80;11.07;;;0.70;99.90;;;;;;4994911;28;20507;-74
2022/11/19 06:42:36;;;;;;;17.33;11.30;;;0.70;99.90;;;;;;5001034;28;20033;-75
2022/11/19 06:45:11;;;;;;;16.45;10.98;;;0.70;99.90;;;;;;5006321;28;20048;-75
2022/11/19 06:47:37;;;;;;;17.45;11.43;;;0.70;99.90;;;;;;5003174;28;20798;-74
2022/11/19 06:50:05;;;;;;;15.70;10.77;;;0.70;99.90;;;;;;5008252;28;20500;-75
2022/11/19 06:52:30;;;;;;;16.15;10.75;;;0.60;99.90;;;;;;5013917;28;20021;-75
2022/11/19 06:54:56;;;;;;;17.50;11.48;;;0.60;99.90;;;;;;5014601;28;20030;-75
2022/11/19 06:57:22;;;;;;;15.93;10.68;;;0.70;99.90;;;;;;5015320;28;20323;-75
2022/11/19 06:59:47;;;;;;;14.52;10.27;;;0.60;99.90;;;;;;5004703;28;20075;-75
2022/11/19 07:02:13;;;;;;;18.88;10.90;;;0.50;99.90;;;;;;5008592;28;20032;-75
2022/11/19 07:04:39;;;;;;;17.80;11.32;;;0.50;99.90;;;;;;5011653;28;20328;-75
2022/11/19 07:07:05;;;;;;;17.05;11.35;;;0.60;99.90;;;;;;5007193;28;20119;-75
2022/11/19 07:09:31;;;;;;;17.48;10.75;;;0.50;99.90;;;;;;5020462;28;20491;-75
2022/11/19 07:11:57;;;;;;;14.05;9.88;;;0.50;99.90;;;;;;5006203;28;20021;-75
2022/11/19 07:14:23;;;;;;;16.30;10.52;;;0.60;99.90;;;;;;5021493;28;20064;-75
2022/11/19 07:16:48;;;;;;;18.00;11.20;;;0.60;99.90;;;;;;5007511;28;20076;-75
2022/11/19 07:19:14;;;;;;;16.63;11.35;;;0.60;99.90;;;;;;5017675;28;20485;-75
2022/11/19 07:21:39;;;;;;;15.20;10.50;;;0.70;99.90;;;;;;5012157;28;20022;-75
2022/11/19 07:24:08;;;;;;;17.50;10.75;;;0.80;99.90;;;;;;5018806;28;20061;-75
2022/11/19 07:26:34;;;;;;;15.98;10.60;;;0.80;99.90;;;;;;5019300;28;20215;-75
2022/11/19 07:29:02;;;;;;;16.17;10.77;;;0.80;99.90;;;;;;5014601;28;20441;-75
2022/11/19 07:31:28;;;;;;;16.88;10.75;;;0.80;99.90;;;;;;5008701;28;20045;-75
2022/11/19 07:33:54;;;;;;;16.80;11.10;;;0.80;99.90;;;;;;4998846;28;20048;-75
2022/11/19 07:36:20;;;;;;;16.33;11.48;;;0.80;99.90;;;;;;5012971;28;20625;-75
2022/11/19 07:38:46;;;;;;;17.45;11.32;;;0.80;99.90;;;;;;4992071;28;20029;-75
2022/11/19 07:43:56;;;;;;;17.65;11.73;;;0.80;99.90;;;;;;5012082;28;20064;-75
2022/11/19 07:46:22;;;;;;;18.63;12.13;;;0.80;99.90;;;;;;5001568;28;20125;-75
2022/11/19 07:48:52;;;;;;;18.80;12.10;;;0.80;99.90;;;;;;5019011;28;20029;-75
2022/11/19 07:51:18;;;;;;;19.17;12.45;;;0.80;99.90;;;;;;5005714;28;20029;-75
2022/11/19 07:53:43;;;;;;;19.88;13.20;;;0.90;99.90;;;;;;5012518;28;20106;-74
2022/11/19 07:56:09;;;;;;;19.67;13.43;;;0.80;99.90;;;;;;5016537;28;20053;-75
2022/11/19 07:58:35;;;;;;;17.85;12.05;;;0.80;99.90;;;;;;5004232;28;20176;-75
2022/11/19 08:01:09;;;;;;;18.98;12.27;;;0.70;99.90;;;;;;5001886;28;20394;-75
2022/11/19 08:03:34;;;;;;;19.08;11.98;;;0.70;99.90;;;;;;5015471;28;20056;-74
2022/11/19 08:06:03;;;;;;;20.25;12.45;;;0.80;99.90;;;;;;5004377;28;20030;-73
2022/11/19 08:08:29;;;;;;;18.88;12.20;;;0.90;99.90;;;;;;5004349;28;20030;-73
2022/11/19 08:10:54;;;;;;;22.17;13.30;;;0.80;99.90;;;;;;5014666;28;20399;-73
2022/11/19 08:13:20;;;;;;;20.70;13.27;;;0.90;99.90;;;;;;5006871;28;20025;-73
2022/11/19 08:15:46;;;;;;;20.85;13.25;;;0.90;99.90;;;;;;5013033;28;20112;-73
2022/11/19 08:18:12;;;;;;;24.33;13.73;;;0.90;99.90;;;;;;5004610;28;20030;-73
2022/11/19 08:20:42;;;;;;;20.85;13.20;;;1.00;99.90;;;;;;5001815;28;20584;-73
2022/11/19 08:23:09;;;;;;;21.60;13.00;;;1.00;99.90;;;;;;5003636;28;20076;-73
2022/11/19 08:25:35;;;;;;;26.20;13.55;;;1.10;99.90;;;;;;5005160;28;20104;-73
2022/11/19 08:28:01;;;;;;;21.67;13.80;;;1.00;99.90;;;;;;5004558;28;20129;-73
2022/11/19 08:30:28;;;;;;;22.08;13.25;;;1.00;99.90;;;;;;4999734;28;20104;-74
2022/11/19 08:32:53;;;;;;;19.80;13.02;;;1.00;99.90;;;;;;5018832;28;20025;-73
2022/11/19 08:35:19;;;;;;;21.45;12.88;;;1.00;99.90;;;;;;5014995;28;20029;-73
2022/11/19 08:37:46;;;;;;;19.77;12.80;;;0.90;99.90;;;;;;5005996;28;20352;-73
2022/11/19 08:40:11;;;;;;;19.65;13.23;;;0.90;99.90;;;;;;5009155;28;20084;-73
2022/11/19 08:45:21;;;;;;;20.08;12.63;;;0.90;99.90;;;;;;5006235;28;20083;-73
2022/11/19 08:47:47;;;;;;;21.33;13.30;;;0.80;99.90;;;;;;5006293;28;20116;-73
2022/11/19 08:50:13;;;;;;;21.02;13.00;;;0.80;99.90;;;;;;5015314;28;20394;-73
2022/11/19 08:52:38;;;;;;;21.02;13.43;;;0.80;99.90;;;;;;5013542;28;20450;-73
2022/11/19 08:55:04;;;;;;;22.33;13.15;;;0.70;99.90;;;;;;5007261;28;20484;-73
2022/11/19 08:57:30;;;;;;;20.90;12.68;;;0.60;99.90;;;;;;5012078;28;20604;-73
2022/11/19 08:59:56;;;;;;;20.30;13.35;;;0.60;99.90;;;;;;5003047;28;20105;-74
2022/11/19 09:02:21;;;;;;;19.52;12.77;;;0.50;99.90;;;;;;5003712;28;20025;-75
2022/11/19 09:04:47;;;;;;;19.98;12.52;;;0.50;99.90;;;;;;5005528;28;20462;-75
2022/11/19 09:07:12;;;;;;;20.50;12.80;;;0.50;99.90;;;;;;5012392;28;20556;-75
2022/11/19 09:09:38;;;;;;;19.63;12.43;;;0.50;99.90;;;;;;5005342;28;20076;-75
2022/11/19 09:12:04;;;;;;;20.08;12.30;;;0.50;99.90;;;;;;5006686;28;20095;-75
2022/11/19 09:14:30;;;;;;;18.98;12.57;;;0.50;99.90;;;;;;5007594;28;20037;-75
2022/11/19 09:16:56;;;;;;;21.35;13.48;;;0.60;99.90;;;;;;5009587;28;20151;-75
2022/11/19 09:19:21;;;;;;;22.38;13.82;;;0.60;99.90;;;;;;5008443;28;20675;-74
2022/11/19 09:21:47;;;;;;;20.20;12.65;;;0.60;99.90;;;;;;5002192;28;20033;-75
2022/11/19 09:24:13;;;;;;;19.83;12.65;;;0.50;99.90;;;;;;5001824;28;20025;-75
2022/11/19 09:26:38;;;;;;;21.00;12.35;;;0.50;99.90;;;;;;5015837;28;20509;-75
2022/11/19 09:29:04;;;;;;;21.90;13.13;;;0.60;99.90;;;;;;5017827;28;20037;-75
2022/11/19 09:31:30;;;;;;;20.17;13.35;;;0.70;99.90;;;;;;5019150;28;20564;-75
2022/11/19 09:33:55;;;;;;;23.73;13.43;;;0.70;99.90;;;;;;5010805;28;20602;-75
2022/11/19 09:36:21;;;;;;;19.40;12.52;;;0.70;99.90;;;;;;5013661;28;20057;-75
2022/11/19 09:38:47;;;;;;;20.35;12.20;;;0.70;99.90;;;;;;5018710;28;20400;-75
2022/11/19 09:41:16;;;;;;;20.90;12.80;;;0.80;99.90;;;;;;5003602;28;20080;-75
2022/11/19 09:44:10;;;;;;;20.33;12.15;;;0.70;99.90;;;;;;5006607;28;20492;-76
2022/11/19 09:47:05;;;;;;;20.42;12.40;;;0.80;99.90;;;;;;5018664;28;20029;-75
2022/11/19 09:49:44;;;;;;;19.48;12.57;;;0.70;99.90;;;;;;5014818;28;20038;-75
2022/11/19 09:52:17;;;;;;;21.55;12.43;;;0.70;99.90;;;;;;5011331;28;20037;-74
2022/11/19 09:54:48;;;;;;;21.77;12.57;;;0.70;99.90;;;;;;5020391;28;20508;-75
2022/11/19 09:57:27;;;;;;;20.55;12.68;;;0.70;99.90;;;;;;5014919;28;20103;-75
2022/11/19 09:59:56;;;;;;;18.23;12.00;;;0.70;99.90;;;;;;5011627;28;20037;-75
2022/11/19 10:02:22;;;;;;;20.13;12.45;;;0.80;99.90;;;;;;5016137;28;20030;-75
2022/11/19 10:04:51;;;;;;;21.95;13.73;;;0.70;99.90;;;;;;5016863;28;20092;-74
2022/11/19 10:07:26;;;;;;;20.10;12.65;;;0.80;99.90;;;;;;5012079;28;20021;-74
2022/11/19 10:10:12;;;;;;;19.73;12.52;;;0.80;99.90;;;;;;5009759;28;20028;-75
2022/11/19 10:13:12;;;;;;;21.48;12.05;;;0.80;99.90;;;;;;5016184;28;20088;-75
2022/11/19 10:16:04;;;;;;;21.10;12.50;;;0.80;99.90;;;;;;5011563;28;20497;-75
2022/11/19 10:18:38;;;;;;;21.27;12.40;;;0.90;99.90;;;;;;5006640;28;20033;-75
2022/11/19 10:21:13;;;;;;;21.15;11.55;;;0.90;99.90;;;;;;5006660;28;20053;-75
2022/11/19 10:23:41;;;;;;;19.35;10.93;;;0.90;99.90;;;;;;5012365;28;20025;-75
2022/11/19 10:26:13;;;;;;;16.77;11.02;;;1.00;99.90;;;;;;5014321;28;20045;-76
2022/11/19 10:28:47;;;;;;;17.05;11.27;;;1.00;99.90;;;;;;5005149;28;20021;-75
2022/11/19 10:31:42;;;;;;;18.13;11.68;;;1.00;99.90;;;;;;5002395;28;20104;-75
2022/11/19 10:34:26;;;;;;;16.33;11.05;;;0.90;99.90;;;;;;5008069;28;20052;-75
2022/11/19 10:37:01;;;;;;;16.65;11.00;;;1.00;99.90;;;;;;5011105;28;20033;-75
2022/11/19 10:39:57;;;;;;;16.33;10.43;;;1.00;99.90;;;;;;5005165;28;20072;-75
2022/11/19 10:42:31;;;;;;;15.98;10.38;;;1.00;99.90;;;;;;5018167;28;20505;-75
2022/11/19 10:45:22;;;;;;;15.52;10.25;;;1.10;99.90;;;;;;5009729;28;20017;-75
2022/11/19 10:48:11;;;;;;;18.90;10.90;;;1.10;99.90;;;;;;5011285;28;20026;-75
2022/11/19 10:50:38;;;;;;;14.70;9.48;;;1.10;99.90;;;;;;5007158;28;20077;-74
2022/11/19 10:53:18;;;;;;;14.35;9.27;;;1.20;99.90;;;;;;5009262;28;20038;-75
2022/11/19 10:55:49;;;;;;;15.02;9.80;;;1.20;99.90;;;;;;5003821;28;20029;-75
2022/11/19 10:58:33;;;;;;;14.05;9.35;;;1.20;99.90;;;;;;5004289;28;20075;-75
2022/11/19 11:01:01;;;;;;;13.45;9.30;;;1.30;99.90;;;;;;5009668;28;20072;-75
2022/11/19 11:03:45;;;;;;;14.13;8.93;;;1.30;99.90;;;;;;5017434;28;20143;-74
2022/11/19 11:06:11;;;;;;;15.68;9.82;;;1.30;99.90;;;;;;5012790;28;20371;-74
2022/11/19 11:08:57;;;;;;;15.10;9.52;;;1.40;99.90;;;;;;5016324;28;20040;-74
2022/11/19 11:14:50;;;;;;;13.88;9.10;;;1.40;99.90;;;;;;5007846;28;20100;-74
2022/11/19 11:17:03;;;;;;;14.40;9.48;;;1.50;99.90;;;;;;5015209;28;20040;-74
2022/11/19 11:19:29;;;;;;;14.25;9.35;;;1.50;99.90;;;;;;5007233;28;20029;-74
2022/11/19 11:21:56;;;;;;;15.63;9.52;;;1.70;99.90;;;;;;5011005;28;20048;-74
2022/11/19 11:24:32;;;;;;;13.88;9.68;;;1.90;99.90;;;;;;5014778;28;20090;-75
2022/11/19 11:27:17;;;;;;;15.57;9.77;;;2.20;99.90;;;;;;5010029;28;20032;-74
2022/11/19 11:29:43;;;;;;;12.60;8.65;;;2.40;99.90;;;;;;5012694;28;20034;-75
2022/11/19 11:32:32;;;;;;;14.32;9.93;;;2.40;99.90;;;;;;5015063;28;20049;-74
2022/11/19 11:34:57;;;;;;;13.63;9.38;;;2.30;99.90;;;;;;5005735;28;20033;-75
2022/11/19 11:37:25;;;;;;;12.30;9.07;;;2.20;99.90;;;;;;5013131;28;20025;-75
2022/11/19 11:39:55;;;;;;;12.82;8.95;;;2.20;99.90;;;;;;5006134;28;20021;-75
2022/11/19 11:42:25;;;;;;;15.48;9.15;;;2.20;99.90;;;;;;5013726;28;20049;-75
2022/11/19 11:44:57;;;;;;;14.10;8.68;;;2.30;99.90;;;;;;5007261;28;20105;-75
2022/11/19 11:47:30;;;;;;;10.57;7.00;;;2.30;99.90;;;;;;5009683;28;20080;-75
2022/11/19 11:50:02;;;;;;;12.38;8.60;;;2.30;99.90;;;;;;5006668;28;20041;-75
2022/11/19 11:52:38;;;;;;;8.85;6.18;;;2.30;99.90;;;;;;5011108;28;20026;-75
2022/11/19 11:55:14;;;;;;;10.85;7.65;;;2.30;99.90;;;;;;5012313;28;20124;-74
2022/11/19 11:57:53;;;;;;;11.98;8.07;;;2.20;99.90;;;;;;5007159;28;20071;-75
2022/11/19 12:00:38;;;;;;;12.40;8.48;;;2.30;99.90;;;;;;5010583;28;20033;-75
2022/11/19 12:03:12;;;;;;;12.25;8.10;;;2.20;99.90;;;;;;5007957;28;20026;-74
2022/11/19 12:06:14;;;;;;;12.18;8.65;;;2.20;99.90;;;;;;5006894;28;20021;-75
2022/11/19 12:09:00;;;;;;;12.40;8.10;;;2.30;99.90;;;;;;5009414;28;20349;-75
2022/11/19 12:11:55;;;;;;;11.10;7.72;;;2.10;99.90;;;;;;5011733;28;20306;-75
2022/11/19 12:15:11;;;;;;;10.68;7.47;;;2.20;99.90;;;;;;5012630;28;20035;-75
2022/11/19 12:17:56;;;;;;;11.38;7.32;;;2.20;99.90;;;;;;5021572;28;20069;-75
2022/11/19 12:20:24;;;;;;;11.32;7.82;;;2.20;99.90;;;;;;5006334;28;20555;-74
2022/11/19 12:23:08;;;;;;;12.10;8.13;;;2.20;99.90;;;;;;5009586;28;20481;-75
2022/11/19 12:25:34;;;;;;;;;;;;;;;;;;5015584;28;20036;-74
2022/11/19 12:28:12;;;;;;;11.13;7.03;;;;;;;;;;5012949;28;19912;-74
2022/11/19 12:30:47;;;;;;;12.00;8.18;;;2.20;99.90;;;;;;5004096;28;20054;-74
2022/11/19 12:33:40;;;;;;;10.82;7.60;;;2.10;99.90;;;;;;5003090;28;20573;-74
2022/11/19 12:36:41;;;;;;;11.60;8.02;;;2.20;99.90;;;;;;5007681;28;20065;-74
2022/11/19 12:39:31;;;;;;;12.52;8.25;;;2.20;99.90;;;;;;5011555;28;20041;-74
2022/11/19 12:42:13;;;;;;;12.70;8.10;;;2.20;99.90;;;;;;5005194;28;20490;-74
2022/11/19 12:44:54;;;;;;;12.02;8.25;;;;;;;;;;5013527;28;20024;-74
2022/11/19 12:47:23;;;;;;;12.48;8.38;;;2.40;99.90;;;;;;5013078;28;20069;-74
2022/11/19 12:49:56;;;;;;;14.65;8.52;;;2.40;99.90;;;;;;5012999;28;20029;-74
2022/11/19 12:53:12;;;;;;;14.40;8.85;;;2.40;99.90;;;;;;5012923;28;20535;-74
2022/11/19 12:55:57;;;;;;;14.82;9.07;;;2.50;99.90;;;;;;5008326;28;20037;-74
2022/11/19 12:58:59;;;;;;;13.43;9.10;;;2.50;99.90;;;;;;5007578;28;20369;-75
2022/11/19 13:01:30;;;;;;;12.93;8.80;;;2.40;99.90;;;;;;5012446;28;20033;-74
2022/11/19 13:03:59;;;;;;;12.48;8.88;;;2.50;99.90;;;;;;5012616;28;20705;-74
2022/11/19 13:06:34;;;;;;;11.80;8.35;;;2.50;99.90;;;;;;5018764;28;20097;-75
2022/11/19 13:09:05;;;;;;;11.43;7.93;;;2.60;99.90;;;;;;5020463;28;20116;-74
2022/11/19 13:11:37;;;;;;;12.10;8.00;;;2.70;99.90;;;;;;5015589;28;20092;-75
2022/11/19 13:14:09;;;;;;;10.85;7.75;;;2.70;99.90;;;;;;5013594;28;20091;-75
2022/11/19 13:16:35;;;;;;;11.48;8.25;;;2.80;99.90;;;;;;5016057;28;20037;-74
2022/11/19 13:19:28;;;;;;;13.40;8.13;;;2.80;99.90;;;;;;5010448;28;20595;-75